createdAt,value
2022-10-19T00:01:19.686Z,10.37
2022-10-19T00:06:25.805Z,10.36
2022-10-19T00:08:56.537Z,10.39
2022-10-19T00:11:23.970Z,10.39
2022-10-19T00:13:50.682Z,10.41
2022-10-19T00:16:17.724Z,10.34
2022-10-19T00:18:44.928Z,10.37
2022-10-19T00:21:13.034Z,10.40
2022-10-19T00:23:39.669Z,10.40
2022-10-19T00:26:06.161Z,10.36
2022-10-19T00:28:32.656Z,10.39
2022-10-19T00:31:03.947Z,10.45
2022-10-19T00:33:30.315Z,10.51
2022-10-19T00:35:56.760Z,10.58
2022-10-19T00:38:23.177Z,10.57
2022-10-19T00:40:49.879Z,10.58
2022-10-19T00:43:20.609Z,10.63
2022-10-19T00:45:47.412Z,10.70
2022-10-19T00:48:17.175Z,10.69
2022-10-19T00:50:44.437Z,10.66
2022-10-19T00:53:10.826Z,10.64
2022-10-19T00:55:37.972Z,10.67
2022-10-19T00:58:04.486Z,10.75
2022-10-19T01:00:31.373Z,10.78
2022-10-19T01:02:59.001Z,10.80
2022-10-19T01:05:25.699Z,10.82
2022-10-19T01:07:52.682Z,10.86
2022-10-19T01:10:20.820Z,10.91
2022-10-19T01:12:47.619Z,10.98
2022-10-19T01:15:29.109Z,11.06
2022-10-19T01:18:08.292Z,11.13
2022-10-19T01:20:53.907Z,11.14
2022-10-19T01:23:39.105Z,11.17
2022-10-19T01:26:11.782Z,11.21
2022-10-19T01:28:41.400Z,11.26
2022-10-19T01:31:22.978Z,11.31
2022-10-19T01:33:52.432Z,11.37
2022-10-19T01:36:54.075Z,11.37
2022-10-19T01:39:32.738Z,11.44
2022-10-19T01:42:04.946Z,11.48
2022-10-19T01:44:42.054Z,11.53
2022-10-19T01:47:24.469Z,11.57
2022-10-19T01:49:57.393Z,11.62
2022-10-19T01:52:25.504Z,11.65
2022-10-19T01:54:54.331Z,11.63
2022-10-19T01:57:23.856Z,11.59
2022-10-19T01:59:51.419Z,11.61
2022-10-19T02:02:19.313Z,11.60
2022-10-19T02:04:47.034Z,11.57
2022-10-19T02:07:13.630Z,11.61
2022-10-19T02:09:40.045Z,11.61
2022-10-19T02:12:09.346Z,11.64
2022-10-19T02:14:40.054Z,11.68
2022-10-19T02:17:09.342Z,11.65
2022-10-19T02:19:36.229Z,11.66
2022-10-19T02:22:02.678Z,11.67
2022-10-19T02:24:29.183Z,11.64
2022-10-19T02:26:56.448Z,11.59
2022-10-19T02:29:23.125Z,11.59
2022-10-19T02:31:49.674Z,11.62
2022-10-19T02:34:16.132Z,11.67
2022-10-19T02:36:42.619Z,11.71
2022-10-19T02:39:09.244Z,11.73
2022-10-19T02:41:38.717Z,11.75
2022-10-19T02:44:13.738Z,11.77
2022-10-19T02:46:50.247Z,11.81
2022-10-19T02:49:16.900Z,11.75
2022-10-19T02:52:00.847Z,11.74
2022-10-19T02:54:27.691Z,11.76
2022-10-19T02:56:54.426Z,11.73
2022-10-19T02:59:20.849Z,11.76
2022-10-19T03:01:47.264Z,11.77
2022-10-19T03:04:13.660Z,11.73
2022-10-19T03:06:40.071Z,11.73
2022-10-19T03:09:06.599Z,11.76
2022-10-19T03:11:33.030Z,11.79
2022-10-19T03:13:59.398Z,11.77
2022-10-19T03:16:25.826Z,11.77
2022-10-19T03:18:52.289Z,11.79
2022-10-19T03:21:18.745Z,11.77
2022-10-19T03:23:45.117Z,11.76
2022-10-19T03:26:13.505Z,11.74
2022-10-19T03:28:40.023Z,11.74
2022-10-19T03:31:06.457Z,11.77
2022-10-19T03:33:32.843Z,11.79
2022-10-19T03:36:17.293Z,11.81
2022-10-19T03:38:43.717Z,11.82
2022-10-19T03:41:10.399Z,11.82
2022-10-19T03:43:36.808Z,11.85
2022-10-19T03:46:03.335Z,11.83
2022-10-19T03:48:29.706Z,11.84
2022-10-19T03:51:00.754Z,11.85
2022-10-19T03:53:27.175Z,11.87
2022-10-19T03:56:00.109Z,11.85
2022-10-19T03:58:26.491Z,11.80
2022-10-19T04:00:52.925Z,11.83
2022-10-19T04:03:19.344Z,11.84
2022-10-19T04:05:45.755Z,11.84
2022-10-19T04:08:12.104Z,11.82
2022-10-19T04:10:38.474Z,11.82
2022-10-19T04:13:04.845Z,11.80
2022-10-19T04:15:31.227Z,11.81
2022-10-19T04:17:57.604Z,11.82
2022-10-19T04:20:24.020Z,11.84
2022-10-19T04:22:52.402Z,11.82
2022-10-19T04:25:18.890Z,11.78
2022-10-19T04:27:45.346Z,11.77
2022-10-19T04:30:11.853Z,11.78
2022-10-19T04:32:38.236Z,11.78
2022-10-19T04:35:04.856Z,11.79
2022-10-19T04:37:31.427Z,11.80
2022-10-19T04:39:58.009Z,11.78
2022-10-19T04:42:24.388Z,11.79
2022-10-19T04:44:50.934Z,11.78
2022-10-19T04:47:17.385Z,11.79
2022-10-19T04:49:43.920Z,11.80
2022-10-19T04:52:10.300Z,11.79
2022-10-19T04:54:36.682Z,11.80
2022-10-19T04:57:03.707Z,11.77
2022-10-19T04:59:30.095Z,11.75
2022-10-19T05:01:56.652Z,11.75
2022-10-19T05:04:23.062Z,11.75
2022-10-19T05:06:49.427Z,11.75
2022-10-19T05:09:15.850Z,11.69
2022-10-19T05:11:42.282Z,11.68
2022-10-19T05:14:08.932Z,11.70
2022-10-19T05:16:35.319Z,11.69
2022-10-19T05:19:02.075Z,11.70
2022-10-19T05:21:29.065Z,11.70
2022-10-19T05:23:56.136Z,11.70
2022-10-19T05:26:23.627Z,11.72
2022-10-19T05:28:51.306Z,11.75
2022-10-19T05:31:19.169Z,11.77
2022-10-19T05:33:45.791Z,11.80
2022-10-19T05:36:19.646Z,11.78
2022-10-19T05:38:46.805Z,11.80
2022-10-19T05:41:13.650Z,11.80
2022-10-19T05:43:40.467Z,11.83
2022-10-19T05:46:08.513Z,11.84
2022-10-19T05:48:35.658Z,11.86
2022-10-19T05:51:02.858Z,11.86
2022-10-19T05:53:29.669Z,11.87
2022-10-19T05:55:56.138Z,11.87
2022-10-19T05:58:22.894Z,11.84
2022-10-19T06:00:56.593Z,11.82
2022-10-19T06:03:23.630Z,11.81
2022-10-19T06:05:50.385Z,11.78
2022-10-19T06:08:17.142Z,11.76
2022-10-19T06:10:43.887Z,11.79
2022-10-19T06:13:10.497Z,11.79
2022-10-19T06:15:37.026Z,11.78
2022-10-19T06:18:04.444Z,11.73
2022-10-19T06:20:30.927Z,11.70
2022-10-19T06:22:57.299Z,11.75
2022-10-19T06:25:23.689Z,11.77
2022-10-19T06:27:50.167Z,11.77
2022-10-19T06:30:16.700Z,11.79
2022-10-19T06:32:43.132Z,11.81
2022-10-19T06:35:09.544Z,11.85
2022-10-19T06:37:36.076Z,11.86
2022-10-19T06:40:06.911Z,11.87
2022-10-19T06:42:33.680Z,11.88
2022-10-19T06:45:00.034Z,11.92
2022-10-19T06:47:31.344Z,11.93
2022-10-19T06:49:57.824Z,11.92
2022-10-19T06:52:24.197Z,11.93
2022-10-19T06:54:50.643Z,11.92
2022-10-19T06:57:17.022Z,11.93
2022-10-19T06:59:43.390Z,11.91
2022-10-19T07:02:12.838Z,11.93
2022-10-19T07:04:39.223Z,11.97
2022-10-19T07:07:05.606Z,12.00
2022-10-19T07:09:31.986Z,12.00
2022-10-19T07:11:58.503Z,12.04
2022-10-19T07:14:24.930Z,12.02
2022-10-19T07:16:51.489Z,12.04
2022-10-19T07:19:17.904Z,12.04
2022-10-19T07:21:44.935Z,12.02
2022-10-19T07:24:11.578Z,12.07
2022-10-19T07:26:38.131Z,12.08
2022-10-19T07:29:05.039Z,12.13
2022-10-19T07:31:32.387Z,12.10
2022-10-19T07:33:59.971Z,12.11
2022-10-19T07:36:27.044Z,12.09
2022-10-19T07:38:53.712Z,12.06
2022-10-19T07:41:21.628Z,12.02
2022-10-19T07:43:48.693Z,12.02
2022-10-19T07:46:16.427Z,12.03
2022-10-19T07:48:43.584Z,12.03
2022-10-19T07:51:10.663Z,12.07
2022-10-19T07:53:37.873Z,12.05
2022-10-19T07:56:05.108Z,12.06
2022-10-19T07:58:32.088Z,12.12
2022-10-19T08:01:02.021Z,12.15
2022-10-19T08:04:14.348Z,12.20
2022-10-19T08:06:19.057Z,12.21
2022-10-19T08:08:46.464Z,12.20
2022-10-19T08:11:14.482Z,12.23
2022-10-19T08:13:41.256Z,12.21
2022-10-19T08:16:19.944Z,12.21
2022-10-19T08:18:46.326Z,12.13
2022-10-19T08:21:12.686Z,12.11
2022-10-19T08:23:39.122Z,12.10
2022-10-19T08:26:05.557Z,12.09
2022-10-19T08:28:31.935Z,12.12
2022-10-19T08:30:59.068Z,12.16
2022-10-19T08:33:26.415Z,12.20
2022-10-19T08:35:54.090Z,12.20
2022-10-19T08:38:20.791Z,12.21
2022-10-19T08:40:47.456Z,12.24
2022-10-19T08:43:21.839Z,12.25
2022-10-19T08:45:53.620Z,12.21
2022-10-19T08:48:24.992Z,12.15
2022-10-19T08:50:51.751Z,12.01
2022-10-19T08:53:32.815Z,11.95
2022-10-19T08:56:14.992Z,11.96
2022-10-19T08:58:47.622Z,11.90
2022-10-19T09:01:20.751Z,11.86
2022-10-19T09:03:55.359Z,11.87
2022-10-19T09:06:44.942Z,11.86
2022-10-19T09:09:13.068Z,11.90
2022-10-19T09:11:43.888Z,11.85
2022-10-19T09:14:28.868Z,11.93
2022-10-19T09:16:58.542Z,11.96
2022-10-19T09:19:29.339Z,11.97
2022-10-19T09:21:57.102Z,11.99
2022-10-19T09:24:35.768Z,12.04
2022-10-19T09:27:02.637Z,12.10
2022-10-19T09:29:37.307Z,12.20
2022-10-19T09:32:04.959Z,12.24
2022-10-19T09:34:34.765Z,12.33
2022-10-19T09:37:01.219Z,12.43
2022-10-19T09:39:29.954Z,12.54
2022-10-19T09:42:01.012Z,12.65
2022-10-19T09:44:27.524Z,12.69
2022-10-19T09:47:17.589Z,12.74
2022-10-19T09:49:45.876Z,12.66
2022-10-19T09:52:23.442Z,12.71
2022-10-19T09:55:01.121Z,12.80
2022-10-19T09:57:27.698Z,12.88
2022-10-19T09:59:54.992Z,12.94
2022-10-19T10:02:22.407Z,12.99
2022-10-19T10:05:03.848Z,13.00
2022-10-19T10:07:34.029Z,13.02
2022-10-19T10:10:00.780Z,13.06
2022-10-19T10:12:27.305Z,13.08
2022-10-19T10:14:55.361Z,13.09
2022-10-19T10:17:23.116Z,13.06
2022-10-19T10:20:12.229Z,13.05
2022-10-19T10:22:38.610Z,13.06
2022-10-19T10:25:12.341Z,13.09
2022-10-19T10:27:39.263Z,13.10
2022-10-19T10:30:10.147Z,13.16
2022-10-19T10:32:38.423Z,13.23
2022-10-19T10:35:07.598Z,13.21
2022-10-19T10:37:41.530Z,13.19
2022-10-19T10:40:23.267Z,13.15
2022-10-19T10:42:51.160Z,13.14
2022-10-19T10:45:20.369Z,13.08
2022-10-19T10:47:48.387Z,13.03
2022-10-19T10:50:22.778Z,13.02
2022-10-19T10:53:03.196Z,13.00
2022-10-19T10:55:31.739Z,12.95
2022-10-19T10:58:24.300Z,12.94
2022-10-19T11:00:53.757Z,12.92
2022-10-19T11:03:23.805Z,12.88
2022-10-19T11:05:54.790Z,12.83
2022-10-19T11:08:33.476Z,12.78
2022-10-19T11:11:06.031Z,12.76
2022-10-19T11:13:41.242Z,12.73
2022-10-19T11:16:18.447Z,12.68
2022-10-19T11:18:47.662Z,12.73
2022-10-19T11:21:20.472Z,12.67
2022-10-19T11:23:59.648Z,12.67
2022-10-19T11:26:32.885Z,12.67
2022-10-19T11:29:18.094Z,12.71
2022-10-19T11:31:51.063Z,12.68
2022-10-19T11:34:30.856Z,12.66
2022-10-19T11:37:03.495Z,12.62
2022-10-19T11:39:41.402Z,12.57
2022-10-19T11:42:27.193Z,12.58
2022-10-19T11:44:59.586Z,12.52
2022-10-19T11:47:29.222Z,12.44
2022-10-19T11:50:02.926Z,12.41
2022-10-19T11:52:32.646Z,12.40
2022-10-19T11:55:17.876Z,12.35
2022-10-19T11:57:58.127Z,12.27
2022-10-19T12:00:38.614Z,12.15
2022-10-19T12:03:11.638Z,12.09
2022-10-19T12:05:44.218Z,12.10
2022-10-19T12:08:29.514Z,12.03
2022-10-19T12:11:10.122Z,12.02
2022-10-19T12:13:47.320Z,12.05
2022-10-19T12:16:14.399Z,12.13
2022-10-19T12:18:46.541Z,12.13
2022-10-19T12:21:25.284Z,12.10
2022-10-19T12:23:52.295Z,12.18
2022-10-19T12:26:20.224Z,12.18
2022-10-19T12:28:49.024Z,12.14
2022-10-19T12:31:16.111Z,12.13
2022-10-19T12:33:44.020Z,12.11
2022-10-19T12:36:16.752Z,12.09
2022-10-19T12:39:01.361Z,12.10
2022-10-19T12:41:44.566Z,12.14
2022-10-19T12:44:14.007Z,12.05
2022-10-19T12:46:48.419Z,12.02
2022-10-19T12:49:30.356Z,11.99
2022-10-19T12:52:00.502Z,11.91
2022-10-19T12:54:28.292Z,11.77
2022-10-19T12:56:55.900Z,11.73
2022-10-19T12:59:22.247Z,11.73
2022-10-19T13:01:48.645Z,11.68
2022-10-19T13:04:16.556Z,11.65
2022-10-19T13:06:44.773Z,11.69
2022-10-19T13:09:22.602Z,11.68
2022-10-19T13:12:25.775Z,11.69
2022-10-19T13:14:54.078Z,11.68
2022-10-19T13:17:46.426Z,11.60
2022-10-19T13:20:16.169Z,11.50
2022-10-19T13:22:47.155Z,11.47
2022-10-19T13:25:16.869Z,11.44
2022-10-19T13:27:44.171Z,11.44
2022-10-19T13:30:30.815Z,11.44
2022-10-19T13:32:57.253Z,11.43
2022-10-19T13:35:23.685Z,11.41
2022-10-19T13:38:24.155Z,11.41
2022-10-19T13:40:50.609Z,11.36
2022-10-19T13:43:21.918Z,11.36
2022-10-19T13:45:58.331Z,11.39
2022-10-19T13:48:33.562Z,11.35
2022-10-19T13:51:15.038Z,11.39
2022-10-19T13:53:48.151Z,11.41
2022-10-19T13:56:17.651Z,11.39
2022-10-19T13:59:06.985Z,11.41
2022-10-19T14:01:47.331Z,11.45
2022-10-19T14:04:32.730Z,11.39
2022-10-19T14:06:59.135Z,11.42
2022-10-19T14:09:31.490Z,11.42
2022-10-19T14:12:18.219Z,11.41
2022-10-19T14:14:45.434Z,11.38
2022-10-19T14:19:52.587Z,11.29
2022-10-19T14:22:18.953Z,11.27
2022-10-19T14:24:45.348Z,11.22
2022-10-19T14:27:16.711Z,11.20
2022-10-19T14:29:45.076Z,11.19
2022-10-19T14:32:12.059Z,11.17
2022-10-19T14:34:46.192Z,11.11
2022-10-19T14:37:26.768Z,11.09
2022-10-19T14:40:04.291Z,11.14
2022-10-19T14:42:42.940Z,11.16
2022-10-19T14:45:12.193Z,11.21
2022-10-19T14:47:50.652Z,11.23
2022-10-19T14:50:17.482Z,11.21
2022-10-19T14:52:44.283Z,11.22
2022-10-19T14:55:17.814Z,11.22
2022-10-19T14:57:47.560Z,11.13
2022-10-19T15:00:18.574Z,11.12
2022-10-19T15:02:59.229Z,11.12
2022-10-19T15:05:28.232Z,11.11
2022-10-19T15:07:54.872Z,11.02
2022-10-19T15:10:31.204Z,11.03
2022-10-19T15:13:02.213Z,11.02
2022-10-19T15:15:30.362Z,10.99
2022-10-19T15:17:59.993Z,10.97
2022-10-19T15:20:28.273Z,10.99
2022-10-19T15:22:55.304Z,11.03
2022-10-19T15:25:24.788Z,11.03
2022-10-19T15:27:52.707Z,11.01
2022-10-19T15:30:19.223Z,10.99
2022-10-19T15:32:46.695Z,10.98
2022-10-19T15:35:19.775Z,10.93
2022-10-19T15:37:48.153Z,10.90
2022-10-19T15:40:20.656Z,10.85
2022-10-19T15:42:48.981Z,10.80
2022-10-19T15:45:27.854Z,10.79
2022-10-19T15:48:09.466Z,10.78
2022-10-19T15:50:40.976Z,10.78
2022-10-19T15:53:07.396Z,10.74
2022-10-19T15:55:33.750Z,10.68
2022-10-19T15:58:00.332Z,10.61
2022-10-19T16:00:28.414Z,10.61
2022-10-19T16:02:54.788Z,10.65
2022-10-19T16:05:21.279Z,10.63
2022-10-19T16:07:47.899Z,10.63
2022-10-19T16:10:16.242Z,10.62
2022-10-19T16:12:42.822Z,10.62
2022-10-19T16:15:13.189Z,10.60
2022-10-19T16:17:39.917Z,10.61
2022-10-19T16:20:06.542Z,10.62
2022-10-19T16:22:33.396Z,10.59
2022-10-19T16:24:59.775Z,10.63
2022-10-19T16:27:26.156Z,10.63
2022-10-19T16:29:52.551Z,10.64
2022-10-19T16:32:18.951Z,10.67
2022-10-19T16:34:46.239Z,10.63
2022-10-19T16:37:12.617Z,10.59
2022-10-19T16:39:39.001Z,10.58
2022-10-19T16:42:05.419Z,10.51
2022-10-19T16:44:31.846Z,10.44
2022-10-19T16:46:58.521Z,10.42
2022-10-19T16:49:25.550Z,10.42
2022-10-19T16:51:54.812Z,10.41
2022-10-19T16:54:24.069Z,10.43
2022-10-19T16:56:50.514Z,10.41
2022-10-19T16:59:17.882Z,10.41
2022-10-19T17:01:44.990Z,10.43
2022-10-19T17:04:11.827Z,10.43
2022-10-19T17:06:38.413Z,10.45
2022-10-19T17:11:51.742Z,10.33
2022-10-19T17:14:18.180Z,10.30
2022-10-19T17:16:44.622Z,10.30
2022-10-19T17:19:11.622Z,10.28
2022-10-19T17:21:38.948Z,10.28
2022-10-19T17:24:06.810Z,10.27
2022-10-19T17:26:34.770Z,10.33
2022-10-19T17:29:01.168Z,10.36
2022-10-19T17:31:28.126Z,10.29
2022-10-19T17:33:54.825Z,10.27
2022-10-19T17:36:22.811Z,10.24
2022-10-19T17:38:49.259Z,10.27
2022-10-19T17:41:17.410Z,10.25
2022-10-19T17:43:44.766Z,10.25
2022-10-19T17:46:12.330Z,10.27
2022-10-19T17:48:39.868Z,10.27
2022-10-19T17:51:13.857Z,10.29
2022-10-19T17:53:40.362Z,10.27
2022-10-19T17:56:07.221Z,10.30
2022-10-19T17:58:36.414Z,10.25
2022-10-19T18:01:07.011Z,10.15
2022-10-19T18:03:34.267Z,10.11
2022-10-19T18:06:10.669Z,10.17
2022-10-19T18:08:38.640Z,10.08
2022-10-19T18:11:06.908Z,10.01
2022-10-19T18:13:33.929Z,10.03
2022-10-19T18:16:01.399Z,9.99
2022-10-19T18:18:31.949Z,9.94
2022-10-19T18:20:58.423Z,9.86
2022-10-19T18:23:25.360Z,9.78
2022-10-19T18:25:54.319Z,9.76
2022-10-19T18:28:21.352Z,9.81
2022-10-19T18:30:47.769Z,9.86
2022-10-19T18:33:14.157Z,9.88
2022-10-19T18:35:41.062Z,9.90
2022-10-19T18:38:07.721Z,9.91
2022-10-19T18:40:35.169Z,9.86
2022-10-19T18:43:01.585Z,9.88
2022-10-19T18:45:27.962Z,9.86
2022-10-19T18:47:54.320Z,9.82
2022-10-19T18:50:20.720Z,9.85
2022-10-19T18:52:47.227Z,9.77
2022-10-19T18:55:13.671Z,9.75
2022-10-19T18:57:40.086Z,9.73
2022-10-19T19:00:06.829Z,9.72
2022-10-19T19:02:46.347Z,9.76
2022-10-19T19:05:13.531Z,9.75
2022-10-19T19:07:39.926Z,9.78
2022-10-19T19:10:06.557Z,9.81
2022-10-19T19:12:33.222Z,9.87
2022-10-19T19:14:59.781Z,9.82
2022-10-19T19:17:26.170Z,9.82
2022-10-19T19:19:52.560Z,9.82
2022-10-19T19:22:19.060Z,9.76
2022-10-19T19:24:45.678Z,9.77
2022-10-19T19:27:12.161Z,9.78
2022-10-19T19:29:38.539Z,9.79
2022-10-19T19:32:05.157Z,9.70
2022-10-19T19:34:31.571Z,9.62
2022-10-19T19:36:57.966Z,9.60
2022-10-19T19:39:24.404Z,9.62
2022-10-19T19:41:51.010Z,9.58
2022-10-19T19:44:17.845Z,9.52
2022-10-19T19:46:44.468Z,9.50
2022-10-19T19:49:10.996Z,9.50
2022-10-19T19:51:37.772Z,9.41
2022-10-19T19:54:04.397Z,9.44
2022-10-19T19:56:31.237Z,9.31
2022-10-19T19:58:58.469Z,9.34
2022-10-19T20:01:25.457Z,9.41
2022-10-19T20:03:52.286Z,9.45
2022-10-19T20:06:22.195Z,9.47
2022-10-19T20:08:51.660Z,9.49
2022-10-19T20:11:18.169Z,9.43
2022-10-19T20:13:45.350Z,9.37
2022-10-19T20:16:16.009Z,9.39
2022-10-19T20:18:46.520Z,9.43
2022-10-19T20:21:13.523Z,9.43
2022-10-19T20:23:40.129Z,9.42
2022-10-19T20:26:06.824Z,9.41
2022-10-19T20:28:33.470Z,9.41
2022-10-19T20:31:01.209Z,9.39
2022-10-19T20:33:28.644Z,9.40
2022-10-19T20:35:55.061Z,9.47
2022-10-19T20:38:21.476Z,9.47
2022-10-19T20:40:47.853Z,9.44
2022-10-19T20:43:15.302Z,9.41
2022-10-19T20:45:41.758Z,9.42
2022-10-19T20:48:08.210Z,9.44
2022-10-19T20:50:34.571Z,9.46
2022-10-19T20:53:00.970Z,9.39
2022-10-19T20:55:27.343Z,9.39
2022-10-19T20:57:53.748Z,9.38
2022-10-19T21:00:20.170Z,9.40
2022-10-19T21:02:46.583Z,9.38
2022-10-19T21:05:13.232Z,9.32
2022-10-19T21:07:39.612Z,9.30
2022-10-19T21:10:06.122Z,9.23
2022-10-19T21:12:32.671Z,9.19
2022-10-19T21:14:59.237Z,9.15
2022-10-19T21:17:25.659Z,9.09
2022-10-19T21:19:52.117Z,9.09
2022-10-19T21:22:18.537Z,9.17
2022-10-19T21:24:44.890Z,9.16
2022-10-19T21:27:11.516Z,9.16
2022-10-19T21:29:37.957Z,9.12
2022-10-19T21:32:04.376Z,9.12
2022-10-19T21:34:31.389Z,9.14
2022-10-19T21:36:58.153Z,9.17
2022-10-19T21:39:24.704Z,9.20
2022-10-19T21:41:51.102Z,9.07
2022-10-19T21:44:17.952Z,9.00
2022-10-19T21:46:44.517Z,8.93
2022-10-19T21:49:12.208Z,8.82
2022-10-19T21:51:47.723Z,8.80
2022-10-19T21:54:15.718Z,8.81
2022-10-19T21:56:42.611Z,8.83
2022-10-19T21:59:09.127Z,8.83
2022-10-19T22:01:38.720Z,8.88
2022-10-19T22:04:08.514Z,8.84
2022-10-19T22:06:36.200Z,8.75
2022-10-19T22:09:04.343Z,8.69
2022-10-19T22:11:30.781Z,8.71
2022-10-19T22:13:58.191Z,8.77
2022-10-19T22:16:25.106Z,8.83
2022-10-19T22:18:52.069Z,8.86
2022-10-19T22:21:23.080Z,8.85
2022-10-19T22:23:53.818Z,8.86
2022-10-19T22:26:31.258Z,8.85
2022-10-19T22:28:58.349Z,8.80
2022-10-19T22:31:25.699Z,8.80
2022-10-19T22:33:52.143Z,8.81
2022-10-19T22:36:18.725Z,8.82
2022-10-19T22:38:45.258Z,8.79
2022-10-19T22:41:11.684Z,8.74
2022-10-19T22:43:38.125Z,8.75
2022-10-19T22:46:04.543Z,8.74
2022-10-19T22:48:31.012Z,8.75
2022-10-19T22:50:57.466Z,8.72
2022-10-19T22:53:24.375Z,8.69
2022-10-19T22:55:50.833Z,8.70
2022-10-19T22:58:17.722Z,8.55
2022-10-19T23:00:44.176Z,8.53
2022-10-19T23:03:10.618Z,8.54
2022-10-19T23:05:37.164Z,8.52
2022-10-19T23:08:03.608Z,8.54
2022-10-19T23:10:30.107Z,8.57
2022-10-19T23:12:56.541Z,8.54
2022-10-19T23:15:22.949Z,8.59
2022-10-19T23:17:49.578Z,8.61
2022-10-19T23:20:16.070Z,8.62
2022-10-19T23:22:42.457Z,8.62
2022-10-19T23:25:09.043Z,8.65
2022-10-19T23:27:35.735Z,8.67
2022-10-19T23:30:03.546Z,8.64
2022-10-19T23:32:30.007Z,8.64
2022-10-19T23:34:56.423Z,8.65
2022-10-19T23:37:22.857Z,8.64
2022-10-19T23:39:49.332Z,8.66
2022-10-19T23:42:15.712Z,8.67
2022-10-19T23:44:42.151Z,8.58
2022-10-19T23:47:08.518Z,8.49
2022-10-19T23:49:34.869Z,8.41
2022-10-19T23:52:01.265Z,8.31
2022-10-19T23:54:27.635Z,8.20
2022-10-19T23:56:54.016Z,8.10
2022-10-19T23:59:20.430Z,7.98
